Vila Pavao, Brazil
Current Conditions -  °F | °C
As of 1:00 PM on Monday 24 Nov 2014 (Local Time) from SBVT Reporting Station
Broken Clouds Broken Clouds  
Wind Chill: 81°   Ceiling: 8000
Heat Index: 85°   Visibility: 6mi
Dew Point: 73°   Wind: 10mph
Humidity: 79%   Direction: 70°ENE
Pressure: 29.97"   Gusts: NA
Location:  18.62°S, 40.61°W
Report Text: SBVT 241500Z 07009KT 9999 SCT025 BKN080 27/23 Q1015
Loading
Personal Weather Stations






























Interactive Weather Map New forecast layout! Learn more

10-Day Weather Forecast

Advertisements
Track Severe Weather on mobile